sensor_id;sensor_type;location;lat;lon;timestamp;pressure;altitude;pressure_sealevel;temperature;humidity
43707;BME280;61348;53.392;-6.248;2023-11-19T00:00:11;99179.22;;;10.35;100.00
43707;BME280;61348;53.392;-6.248;2023-11-19T00:02:41;99180.78;;;10.32;100.00
43707;BME280;61348;53.392;-6.248;2023-11-19T00:05:10;99182.75;;;10.32;100.00
43707;BME280;61348;53.392;-6.248;2023-11-19T00:07:40;99183.56;;;10.32;100.00
43707;BME280;61348;53.392;-6.248;2023-11-19T00:10:09;99182.00;;;10.35;100.00
43707;BME280;61348;53.392;-6.248;2023-11-19T00:12:41;99172.13;;;10.37;100.00
43707;BME280;61348;53.392;-6.248;2023-11-19T00:15:08;99163.41;;;10.35;100.00
43707;BME280;61348;53.392;-6.248;2023-11-19T00:17:40;99166.16;;;10.32;100.00
43707;BME280;61348;53.392;-6.248;2023-11-19T00:20:08;99160.19;;;10.30;100.00
43707;BME280;61348;53.392;-6.248;2023-11-19T00:22:35;99145.56;;;10.26;100.00
43707;BME280;61348;53.392;-6.248;2023-11-19T00:25:03;99160.13;;;10.23;100.00
43707;BME280;61348;53.392;-6.248;2023-11-19T00:27:31;99162.84;;;10.19;100.00
43707;BME280;61348;53.392;-6.248;2023-11-19T00:29:58;99167.97;;;10.17;100.00
43707;BME280;61348;53.392;-6.248;2023-11-19T00:32:25;99175.88;;;10.15;100.00
43707;BME280;61348;53.392;-6.248;2023-11-19T00:34:53;99190.88;;;10.14;100.00
43707;BME280;61348;53.392;-6.248;2023-11-19T00:37:20;99180.19;;;10.13;100.00
43707;BME280;61348;53.392;-6.248;2023-11-19T00:39:48;99178.63;;;10.15;100.00
43707;BME280;61348;53.392;-6.248;2023-11-19T00:42:15;99182.63;;;10.18;100.00
43707;BME280;61348;53.392;-6.248;2023-11-19T00:44:44;99178.28;;;10.20;100.00
43707;BME280;61348;53.392;-6.248;2023-11-19T00:47:15;99172.38;;;10.22;100.00
43707;BME280;61348;53.392;-6.248;2023-11-19T00:49:43;99172.38;;;10.22;100.00
43707;BME280;61348;53.392;-6.248;2023-11-19T00:52:10;99183.06;;;10.23;100.00
43707;BME280;61348;53.392;-6.248;2023-11-19T00:54:37;99177.53;;;10.23;100.00
43707;BME280;61348;53.392;-6.248;2023-11-19T00:57:06;99174.00;;;10.26;100.00
43707;BME280;61348;53.392;-6.248;2023-11-19T00:59:33;99177.56;;;10.27;100.00
43707;BME280;61348;53.392;-6.248;2023-11-19T01:02:00;99161.38;;;10.29;100.00
43707;BME280;61348;53.392;-6.248;2023-11-19T01:04:36;99154.66;;;10.30;100.00
43707;BME280;61348;53.392;-6.248;2023-11-19T01:07:04;99167.72;;;10.29;100.00
43707;BME280;61348;53.392;-6.248;2023-11-19T01:09:32;99168.50;;;10.30;100.00
43707;BME280;61348;53.392;-6.248;2023-11-19T01:12:02;99162.56;;;10.28;100.00
43707;BME280;61348;53.392;-6.248;2023-11-19T01:14:30;99164.09;;;10.25;100.00
43707;BME280;61348;53.392;-6.248;2023-11-19T01:16:58;99155.78;;;10.22;100.00
43707;BME280;61348;53.392;-6.248;2023-11-19T01:19:25;99143.09;;;10.17;100.00
43707;BME280;61348;53.392;-6.248;2023-11-19T01:21:53;99142.28;;;10.13;100.00
43707;BME280;61348;53.392;-6.248;2023-11-19T01:24:20;99142.22;;;10.10;100.00
43707;BME280;61348;53.392;-6.248;2023-11-19T01:26:48;99135.47;;;10.07;100.00
43707;BME280;61348;53.392;-6.248;2023-11-19T01:29:16;99130.69;;;10.04;100.00
43707;BME280;61348;53.392;-6.248;2023-11-19T01:31:45;99124.34;;;10.00;100.00
43707;BME280;61348;53.392;-6.248;2023-11-19T01:34:13;99129.44;;;9.98;100.00
43707;BME280;61348;53.392;-6.248;2023-11-19T01:36:41;99121.16;;;9.98;100.00
43707;BME280;61348;53.392;-6.248;2023-11-19T01:39:08;99125.13;;;10.01;100.00
43707;BME280;61348;53.392;-6.248;2023-11-19T01:41:36;99123.59;;;10.03;100.00
43707;BME280;61348;53.392;-6.248;2023-11-19T01:44:03;99118.88;;;10.07;100.00
43707;BME280;61348;53.392;-6.248;2023-11-19T01:46:32;99119.28;;;10.09;100.00
43707;BME280;61348;53.392;-6.248;2023-11-19T01:49:01;99118.56;;;10.12;100.00
43707;BME280;61348;53.392;-6.248;2023-11-19T01:51:30;99121.38;;;10.16;100.00
43707;BME280;61348;53.392;-6.248;2023-11-19T01:53:58;99116.63;;;10.16;100.00
43707;BME280;61348;53.392;-6.248;2023-11-19T01:56:26;99120.59;;;10.19;100.00
43707;BME280;61348;53.392;-6.248;2023-11-19T01:58:54;99128.50;;;10.20;100.00
43707;BME280;61348;53.392;-6.248;2023-11-19T02:01:23;99115.09;;;10.22;100.00
43707;BME280;61348;53.392;-6.248;2023-11-19T02:03:51;99111.56;;;10.25;100.00
43707;BME280;61348;53.392;-6.248;2023-11-19T02:06:19;99108.78;;;10.25;100.00
43707;BME280;61348;53.392;-6.248;2023-11-19T02:08:47;99110.41;;;10.26;100.00
43707;BME280;61348;53.392;-6.248;2023-11-19T02:11:15;99113.56;;;10.28;100.00
43707;BME280;61348;53.392;-6.248;2023-11-19T02:13:42;99115.53;;;10.28;100.00
43707;BME280;61348;53.392;-6.248;2023-11-19T02:16:11;99110.41;;;10.26;100.00
43707;BME280;61348;53.392;-6.248;2023-11-19T02:18:39;99113.53;;;10.25;100.00
43707;BME280;61348;53.392;-6.248;2023-11-19T02:21:06;99104.47;;;10.24;100.00
43707;BME280;61348;53.392;-6.248;2023-11-19T02:23:33;99100.09;;;10.23;100.00
43707;BME280;61348;53.392;-6.248;2023-11-19T02:26:14;99096.53;;;10.23;100.00
43707;BME280;61348;53.392;-6.248;2023-11-19T02:28:42;99094.56;;;10.23;100.00
43707;BME280;61348;53.392;-6.248;2023-11-19T02:31:10;99088.22;;;10.23;100.00
43707;BME280;61348;53.392;-6.248;2023-11-19T02:33:39;99086.63;;;10.22;100.00
43707;BME280;61348;53.392;-6.248;2023-11-19T02:36:08;99081.91;;;10.22;100.00
43707;BME280;61348;53.392;-6.248;2023-11-19T02:38:36;99070.03;;;10.22;100.00
43707;BME280;61348;53.392;-6.248;2023-11-19T02:41:04;99072.44;;;10.23;100.00
43707;BME280;61348;53.392;-6.248;2023-11-19T02:43:36;99079.56;;;10.24;100.00
43707;BME280;61348;53.392;-6.248;2023-11-19T02:46:04;99085.88;;;10.25;100.00
43707;BME280;61348;53.392;-6.248;2023-11-19T02:48:36;99072.44;;;10.23;100.00
43707;BME280;61348;53.392;-6.248;2023-11-19T02:51:04;99077.16;;;10.23;100.00
43707;BME280;61348;53.392;-6.248;2023-11-19T02:53:35;99072.03;;;10.21;100.00
43707;BME280;61348;53.392;-6.248;2023-11-19T02:56:04;99070.84;;;10.22;100.00
43707;BME280;61348;53.392;-6.248;2023-11-19T02:58:53;99063.72;;;10.21;100.00
43707;BME280;61348;53.392;-6.248;2023-11-19T03:01:24;99071.63;;;10.23;100.00
43707;BME280;61348;53.392;-6.248;2023-11-19T03:03:58;99072.44;;;10.23;100.00
43707;BME280;61348;53.392;-6.248;2023-11-19T03:06:27;99068.50;;;10.24;100.00
43707;BME280;61348;53.392;-6.248;2023-11-19T03:08:56;99062.97;;;10.24;100.00
43707;BME280;61348;53.392;-6.248;2023-11-19T03:11:23;99059.00;;;10.25;100.00
43707;BME280;61348;53.392;-6.248;2023-11-19T03:13:51;99062.19;;;10.27;100.00
43707;BME280;61348;53.392;-6.248;2023-11-19T03:16:19;99049.16;;;10.28;100.00
43707;BME280;61348;53.392;-6.248;2023-11-19T03:18:46;99063.78;;;10.28;100.00
43707;BME280;61348;53.392;-6.248;2023-11-19T03:21:14;99054.31;;;10.29;100.00
43707;BME280;61348;53.392;-6.248;2023-11-19T03:23:41;99070.50;;;10.31;100.00
43707;BME280;61348;53.392;-6.248;2023-11-19T03:26:10;99070.16;;;10.32;100.00
43707;BME280;61348;53.392;-6.248;2023-11-19T03:28:37;99061.84;;;10.32;100.00
43707;BME280;61348;53.392;-6.248;2023-11-19T03:31:05;99066.19;;;10.33;100.00
43707;BME280;61348;53.392;-6.248;2023-11-19T03:33:36;99057.50;;;10.35;100.00
43707;BME280;61348;53.392;-6.248;2023-11-19T03:36:05;99054.34;;;10.36;100.00
43707;BME280;61348;53.392;-6.248;2023-11-19T03:38:32;99044.09;;;10.37;100.00
43707;BME280;61348;53.392;-6.248;2023-11-19T03:41:00;99050.41;;;10.37;100.00
43707;BME280;61348;53.392;-6.248;2023-11-19T03:43:27;99040.13;;;10.38;100.00
43707;BME280;61348;53.392;-6.248;2023-11-19T03:45:54;99040.91;;;10.38;100.00
43707;BME280;61348;53.392;-6.248;2023-11-19T03:48:22;99040.13;;;10.38;100.00
43707;BME280;61348;53.392;-6.248;2023-11-19T03:50:49;99035.38;;;10.38;100.00
43707;BME280;61348;53.392;-6.248;2023-11-19T03:53:17;99028.28;;;10.37;100.00
43707;BME280;61348;53.392;-6.248;2023-11-19T03:55:45;99029.47;;;10.36;100.00
43707;BME280;61348;53.392;-6.248;2023-11-19T03:58:13;99025.88;;;10.36;100.00
43707;BME280;61348;53.392;-6.248;2023-11-19T04:00:40;99027.09;;;10.35;100.00
43707;BME280;61348;53.392;-6.248;2023-11-19T04:03:08;99031.41;;;10.32;100.00
43707;BME280;61348;53.392;-6.248;2023-11-19T04:05:35;99021.88;;;10.30;100.00
43707;BME280;61348;53.392;-6.248;2023-11-19T04:08:02;99025.06;;;10.28;100.00
43707;BME280;61348;53.392;-6.248;2023-11-19T04:10:30;99030.19;;;10.26;100.00
43707;BME280;61348;53.392;-6.248;2023-11-19T04:12:57;99022.25;;;10.25;100.00
43707;BME280;61348;53.392;-6.248;2023-11-19T04:15:24;99026.63;;;10.26;100.00
43707;BME280;61348;53.392;-6.248;2023-11-19T04:17:51;99033.31;;;10.25;100.00
43707;BME280;61348;53.392;-6.248;2023-11-19T04:20:19;99023.06;;;10.25;100.00
43707;BME280;61348;53.392;-6.248;2023-11-19T04:22:46;99018.72;;;10.28;100.00
43707;BME280;61348;53.392;-6.248;2023-11-19T04:25:13;99021.88;;;10.30;100.00
43707;BME280;61348;53.392;-6.248;2023-11-19T04:27:42;99018.75;;;10.31;100.00
43707;BME280;61348;53.392;-6.248;2023-11-19T04:30:09;99026.28;;;10.34;100.00
43707;BME280;61348;53.392;-6.248;2023-11-19T04:32:38;99015.63;;;10.36;100.00
43707;BME280;61348;53.392;-6.248;2023-11-19T04:35:06;99006.16;;;10.37;100.00
43707;BME280;61348;53.392;-6.248;2023-11-19T04:37:36;99001.03;;;10.39;100.00
43707;BME280;61348;53.392;-6.248;2023-11-19T04:40:05;98994.28;;;10.40;100.00
43707;BME280;61348;53.392;-6.248;2023-11-19T04:42:32;99003.00;;;10.39;100.00
43707;BME280;61348;53.392;-6.248;2023-11-19T04:45:00;98992.69;;;10.36;100.00
43707;BME280;61348;53.392;-6.248;2023-11-19T04:47:27;99000.56;;;10.30;100.00
43707;BME280;61348;53.392;-6.248;2023-11-19T04:49:54;98997.41;;;10.28;100.00
43707;BME280;61348;53.392;-6.248;2023-11-19T04:52:22;99005.28;;;10.26;100.00
43707;BME280;61348;53.392;-6.248;2023-11-19T04:54:49;98995.41;;;10.25;100.00
43707;BME280;61348;53.392;-6.248;2023-11-19T04:57:17;98995.78;;;10.24;100.00
43707;BME280;61348;53.392;-6.248;2023-11-19T04:59:44;98999.34;;;10.24;100.00
43707;BME280;61348;53.392;-6.248;2023-11-19T05:02:12;99000.53;;;10.23;100.00
43707;BME280;61348;53.392;-6.248;2023-11-19T05:04:43;98977.22;;;10.24;100.00
43707;BME280;61348;53.392;-6.248;2023-11-19T05:07:14;98986.31;;;10.25;100.00
43707;BME280;61348;53.392;-6.248;2023-11-19T05:09:41;98995.41;;;10.25;100.00
43707;BME280;61348;53.392;-6.248;2023-11-19T05:12:10;98985.53;;;10.24;100.00
43707;BME280;61348;53.392;-6.248;2023-11-19T05:14:39;98992.63;;;10.25;100.00
43707;BME280;61348;53.392;-6.248;2023-11-19T05:17:07;98983.16;;;10.26;100.00
43707;BME280;61348;53.392;-6.248;2023-11-19T05:19:35;98977.63;;;10.26;100.00
43707;BME280;61348;53.392;-6.248;2023-11-19T05:22:02;98981.97;;;10.27;100.00
43707;BME280;61348;53.392;-6.248;2023-11-19T05:24:31;98986.72;;;10.27;100.00
43707;BME280;61348;53.392;-6.248;2023-11-19T05:26:58;98981.97;;;10.27;100.00
43707;BME280;61348;53.392;-6.248;2023-11-19T05:29:25;98985.53;;;10.28;100.00
43707;BME280;61348;53.392;-6.248;2023-11-19T05:31:54;98975.25;;;10.28;100.00
43707;BME280;61348;53.392;-6.248;2023-11-19T05:34:22;98991.06;;;10.28;100.00
43707;BME280;61348;53.392;-6.248;2023-11-19T05:36:49;98973.66;;;10.27;100.00
43707;BME280;61348;53.392;-6.248;2023-11-19T05:39:17;98981.97;;;10.27;100.00
43707;BME280;61348;53.392;-6.248;2023-11-19T05:41:48;98976.03;;;10.25;100.00
43707;BME280;61348;53.392;-6.248;2023-11-19T05:44:17;98976.03;;;10.25;100.00
43707;BME280;61348;53.392;-6.248;2023-11-19T05:46:44;98977.22;;;10.24;100.00
43707;BME280;61348;53.392;-6.248;2023-11-19T05:49:12;98973.66;;;10.24;100.00
43707;BME280;61348;53.392;-6.248;2023-11-19T05:51:41;98978.81;;;10.25;100.00
43707;BME280;61348;53.392;-6.248;2023-11-19T05:54:09;98981.19;;;10.27;100.00
43707;BME280;61348;53.392;-6.248;2023-11-19T05:56:37;98968.13;;;10.27;100.00
43707;BME280;61348;53.392;-6.248;2023-11-19T05:59:05;98974.47;;;10.28;100.00
43707;BME280;61348;53.392;-6.248;2023-11-19T06:01:34;98971.69;;;10.28;100.00
43707;BME280;61348;53.392;-6.248;2023-11-19T06:04:02;98976.84;;;10.26;100.00
43707;BME280;61348;53.392;-6.248;2023-11-19T06:06:29;98970.50;;;10.25;100.00
43707;BME280;61348;53.392;-6.248;2023-11-19T06:08:57;98974.03;;;10.22;100.00
43707;BME280;61348;53.392;-6.248;2023-11-19T06:11:24;98964.94;;;10.22;100.00
43707;BME280;61348;53.392;-6.248;2023-11-19T06:13:54;98960.97;;;10.19;100.00
43707;BME280;61348;53.392;-6.248;2023-11-19T06:16:21;98971.28;;;10.19;100.00
43707;BME280;61348;53.392;-6.248;2023-11-19T06:18:48;98966.09;;;10.17;100.00
43707;BME280;61348;53.392;-6.248;2023-11-19T06:21:16;98967.31;;;10.16;100.00
43707;BME280;61348;53.392;-6.248;2023-11-19T06:23:43;98962.53;;;10.17;100.00
43707;BME280;61348;53.392;-6.248;2023-11-19T06:26:11;98969.66;;;10.18;100.00
43707;BME280;61348;53.392;-6.248;2023-11-19T06:28:38;98963.34;;;10.17;100.00
43707;BME280;61348;53.392;-6.248;2023-11-19T06:31:08;98967.69;;;10.18;100.00
43707;BME280;61348;53.392;-6.248;2023-11-19T06:33:35;98960.56;;;10.17;100.00
43707;BME280;61348;53.392;-6.248;2023-11-19T06:36:02;98968.88;;;10.17;100.00
43707;BME280;61348;53.392;-6.248;2023-11-19T06:38:30;98960.22;;;10.19;100.00
43707;BME280;61348;53.392;-6.248;2023-11-19T06:40:57;98966.50;;;10.19;100.00
43707;BME280;61348;53.392;-6.248;2023-11-19T06:43:24;98970.06;;;10.20;100.00
43707;BME280;61348;53.392;-6.248;2023-11-19T06:45:54;98962.56;;;10.20;100.00
43707;BME280;61348;53.392;-6.248;2023-11-19T06:48:21;98953.09;;;10.21;100.00
43707;BME280;61348;53.392;-6.248;2023-11-19T06:50:48;98958.63;;;10.21;100.00
43707;BME280;61348;53.392;-6.248;2023-11-19T06:53:16;98950.72;;;10.20;100.00
43707;BME280;61348;53.392;-6.248;2023-11-19T06:55:43;98953.88;;;10.18;100.00
43707;BME280;61348;53.392;-6.248;2023-11-19T06:58:10;98942.03;;;10.18;100.00
43707;BME280;61348;53.392;-6.248;2023-11-19T07:00:39;98952.28;;;10.17;100.00
43707;BME280;61348;53.392;-6.248;2023-11-19T07:03:06;98960.56;;;10.17;100.00
43707;BME280;61348;53.392;-6.248;2023-11-19T07:05:36;98959.41;;;10.18;100.00
43707;BME280;61348;53.392;-6.248;2023-11-19T07:08:07;98960.97;;;10.19;100.00
43707;BME280;61348;53.392;-6.248;2023-11-19T07:10:34;98959.00;;;10.20;100.00
43707;BME280;61348;53.392;-6.248;2023-11-19T07:13:01;98948.75;;;10.20;100.00
43707;BME280;61348;53.392;-6.248;2023-11-19T07:15:33;98956.25;;;10.20;100.00
43707;BME280;61348;53.392;-6.248;2023-11-19T07:18:00;98960.22;;;10.22;100.00
43707;BME280;61348;53.392;-6.248;2023-11-19T07:20:29;98950.34;;;10.21;100.00
43707;BME280;61348;53.392;-6.248;2023-11-19T07:22:58;98947.56;;;10.21;100.00
43707;BME280;61348;53.392;-6.248;2023-11-19T07:25:25;98939.69;;;10.23;100.00
43707;BME280;61348;53.392;-6.248;2023-11-19T07:27:53;98942.81;;;10.22;100.00
43707;BME280;61348;53.392;-6.248;2023-11-19T07:30:20;98949.94;;;10.23;100.00
43707;BME280;61348;53.392;-6.248;2023-11-19T07:32:48;98935.31;;;10.22;100.00
43707;BME280;61348;53.392;-6.248;2023-11-19T07:35:15;98932.56;;;10.22;100.00
43707;BME280;61348;53.392;-6.248;2023-11-19T07:37:43;98932.56;;;10.22;100.00
43707;BME280;61348;53.392;-6.248;2023-11-19T07:40:10;98927.03;;;10.22;100.00
43707;BME280;61348;53.392;-6.248;2023-11-19T07:42:38;98925.84;;;10.23;100.00
43707;BME280;61348;53.392;-6.248;2023-11-19T07:45:06;98925.44;;;10.25;100.00
43707;BME280;61348;53.392;-6.248;2023-11-19T07:47:34;98929.41;;;10.27;100.00
43707;BME280;61348;53.392;-6.248;2023-11-19T07:50:02;98932.63;;;10.29;100.00
43707;BME280;61348;53.392;-6.248;2023-11-19T07:52:30;98935.78;;;10.31;100.00
43707;BME280;61348;53.392;-6.248;2023-11-19T07:54:58;98930.28;;;10.35;100.00
43707;BME280;61348;53.392;-6.248;2023-11-19T07:57:25;98930.66;;;10.37;100.00
43707;BME280;61348;53.392;-6.248;2023-11-19T07:59:54;98942.94;;;10.39;100.00
43707;BME280;61348;53.392;-6.248;2023-11-19T08:02:24;98946.88;;;10.38;100.00
43707;BME280;61348;53.392;-6.248;2023-11-19T08:04:51;98942.94;;;10.39;100.00
43707;BME280;61348;53.392;-6.248;2023-11-19T08:07:19;98947.28;;;10.40;100.00
43707;BME280;61348;53.392;-6.248;2023-11-19T08:09:46;98944.13;;;10.42;100.00
43707;BME280;61348;53.392;-6.248;2023-11-19T08:12:14;98949.25;;;10.44;100.00
43707;BME280;61348;53.392;-6.248;2023-11-19T08:14:44;98946.94;;;10.46;100.00
43707;BME280;61348;53.392;-6.248;2023-11-19T08:17:12;98939.03;;;10.48;100.00
43707;BME280;61348;53.392;-6.248;2023-11-19T08:19:39;98939.03;;;10.51;100.00
43707;BME280;61348;53.392;-6.248;2023-11-19T08:22:06;98944.56;;;10.55;100.00
43707;BME280;61348;53.392;-6.248;2023-11-19T08:24:34;98941.44;;;10.56;100.00
43707;BME280;61348;53.392;-6.248;2023-11-19T08:27:01;98948.56;;;10.61;100.00
43707;BME280;61348;53.392;-6.248;2023-11-19T08:29:29;98948.59;;;10.64;100.00
43707;BME280;61348;53.392;-6.248;2023-11-19T08:31:56;98954.13;;;10.68;100.00
43707;BME280;61348;53.392;-6.248;2023-11-19T08:34:24;98950.97;;;10.69;100.00
43707;BME280;61348;53.392;-6.248;2023-11-19T08:36:52;98954.50;;;10.70;100.00
43707;BME280;61348;53.392;-6.248;2023-11-19T08:39:22;98958.09;;;10.74;100.00
43707;BME280;61348;53.392;-6.248;2023-11-19T08:41:50;98954.16;;;10.75;100.00
43707;BME280;61348;53.392;-6.248;2023-11-19T08:44:17;98951.41;;;10.75;100.00
43707;BME280;61348;53.392;-6.248;2023-11-19T08:46:48;98948.22;;;10.76;100.00
43707;BME280;61348;53.392;-6.248;2023-11-19T08:49:16;98964.44;;;10.78;100.00
43707;BME280;61348;53.392;-6.248;2023-11-19T08:51:43;98962.09;;;10.80;100.00
43707;BME280;61348;53.392;-6.248;2023-11-19T08:54:12;98972.38;;;10.79;100.00
43707;BME280;61348;53.392;-6.248;2023-11-19T08:56:41;98970.00;;;10.81;100.00
43707;BME280;61348;53.392;-6.248;2023-11-19T08:59:09;98964.06;;;10.83;100.00
43707;BME280;61348;53.392;-6.248;2023-11-19T09:01:36;98965.66;;;10.84;100.00
43707;BME280;61348;53.392;-6.248;2023-11-19T09:04:04;98958.94;;;10.85;100.00
43707;BME280;61348;53.392;-6.248;2023-11-19T09:06:32;98966.06;;;10.86;100.00
43707;BME280;61348;53.392;-6.248;2023-11-19T09:08:59;98967.66;;;10.87;100.00
43707;BME280;61348;53.392;-6.248;2023-11-19T09:11:32;98960.50;;;10.86;100.00
43707;BME280;61348;53.392;-6.248;2023-11-19T09:13:59;98956.56;;;10.87;100.00
43707;BME280;61348;53.392;-6.248;2023-11-19T09:16:27;98960.50;;;10.86;100.00
43707;BME280;61348;53.392;-6.248;2023-11-19T09:18:54;98963.72;;;10.88;100.00
43707;BME280;61348;53.392;-6.248;2023-11-19T09:21:21;98958.53;;;10.86;100.00
43707;BME280;61348;53.392;-6.248;2023-11-19T09:23:49;98967.66;;;10.87;100.00
43707;BME280;61348;53.392;-6.248;2023-11-19T09:26:17;98978.31;;;10.88;100.00
43707;BME280;61348;53.392;-6.248;2023-11-19T09:28:45;98972.41;;;10.90;100.00
43707;BME280;61348;53.392;-6.248;2023-11-19T09:31:15;98981.91;;;10.92;100.00
43707;BME280;61348;53.392;-6.248;2023-11-19T09:33:44;98980.34;;;10.95;100.00
43707;BME280;61348;53.392;-6.248;2023-11-19T09:36:12;98986.25;;;10.97;100.00
43707;BME280;61348;53.392;-6.248;2023-11-19T09:38:45;98986.66;;;10.99;100.00
43707;BME280;61348;53.392;-6.248;2023-11-19T09:41:12;98981.94;;;11.03;100.00
43707;BME280;61348;53.392;-6.248;2023-11-19T09:43:42;98989.88;;;11.08;100.00
43707;BME280;61348;53.392;-6.248;2023-11-19T09:46:16;98996.63;;;11.14;100.00
43707;BME280;61348;53.392;-6.248;2023-11-19T09:48:48;98997.81;;;11.20;100.00
43707;BME280;61348;53.392;-6.248;2023-11-19T09:51:20;99006.53;;;11.22;100.00
43707;BME280;61348;53.392;-6.248;2023-11-19T09:54:03;99010.50;;;11.28;100.00
43707;BME280;61348;53.392;-6.248;2023-11-19T09:56:38;99016.84;;;11.29;100.00
43707;BME280;61348;53.392;-6.248;2023-11-19T09:59:06;99016.47;;;11.30;100.00
43707;BME280;61348;53.392;-6.248;2023-11-19T10:01:33;99012.88;;;11.33;100.00
43707;BME280;61348;53.392;-6.248;2023-11-19T10:04:02;99012.88;;;11.33;100.00
43707;BME280;61348;53.392;-6.248;2023-11-19T10:06:30;99026.34;;;11.35;100.00
43707;BME280;61348;53.392;-6.248;2023-11-19T10:08:57;99027.16;;;11.35;100.00
43707;BME280;61348;53.392;-6.248;2023-11-19T10:11:26;99026.75;;;11.37;100.00
43707;BME280;61348;53.392;-6.248;2023-11-19T10:13:54;99042.19;;;11.38;100.00
43707;BME280;61348;53.392;-6.248;2023-11-19T10:16:28;99039.03;;;11.39;100.00
43707;BME280;61348;53.392;-6.248;2023-11-19T10:18:56;99046.97;;;11.41;100.00
43707;BME280;61348;53.392;-6.248;2023-11-19T10:21:24;99046.56;;;11.42;100.00
43707;BME280;61348;53.392;-6.248;2023-11-19T10:23:54;99047.72;;;11.41;100.00
43707;BME280;61348;53.392;-6.248;2023-11-19T10:26:24;99061.19;;;11.46;100.00
43707;BME280;61348;53.392;-6.248;2023-11-19T10:28:51;99069.94;;;11.48;100.00
43707;BME280;61348;53.392;-6.248;2023-11-19T10:31:20;99073.13;;;11.54;100.00
43707;BME280;61348;53.392;-6.248;2023-11-19T10:33:54;99079.09;;;11.59;100.00
43707;BME280;61348;53.392;-6.248;2023-11-19T10:36:22;99086.59;;;11.66;100.00
43707;BME280;61348;53.392;-6.248;2023-11-19T10:38:52;99081.91;;;11.70;100.00
43707;BME280;61348;53.392;-6.248;2023-11-19T10:41:30;99091.41;;;11.73;100.00
43707;BME280;61348;53.392;-6.248;2023-11-19T10:43:58;99102.50;;;11.73;100.00
43707;BME280;61348;53.392;-6.248;2023-11-19T10:46:40;99110.00;;;11.76;100.00
43707;BME280;61348;53.392;-6.248;2023-11-19T10:49:08;99108.44;;;11.75;100.00
43707;BME280;61348;53.392;-6.248;2023-11-19T10:51:35;99116.34;;;11.76;100.00
43707;BME280;61348;53.392;-6.248;2023-11-19T10:54:05;99118.34;;;11.79;100.00
43707;BME280;61348;53.392;-6.248;2023-11-19T10:56:33;99131.84;;;11.81;100.00
43707;BME280;61348;53.392;-6.248;2023-11-19T10:59:01;99131.03;;;11.84;100.00
43707;BME280;61348;53.392;-6.248;2023-11-19T11:01:48;99134.22;;;11.89;100.00
43707;BME280;61348;53.392;-6.248;2023-11-19T11:04:22;99137.78;;;11.90;100.00
43707;BME280;61348;53.392;-6.248;2023-11-19T11:06:51;99145.31;;;11.89;100.00
43707;BME280;61348;53.392;-6.248;2023-11-19T11:09:18;99151.66;;;11.90;100.00
43707;BME280;61348;53.392;-6.248;2023-11-19T11:11:47;99143.34;;;11.90;100.00
43707;BME280;61348;53.392;-6.248;2023-11-19T11:14:17;99146.88;;;11.87;100.00
43707;BME280;61348;53.392;-6.248;2023-11-19T11:16:46;99163.53;;;11.87;100.00
43707;BME280;61348;53.392;-6.248;2023-11-19T11:19:15;99160.34;;;11.85;100.00
43707;BME280;61348;53.392;-6.248;2023-11-19T11:21:45;99171.44;;;11.85;100.00
43707;BME280;61348;53.392;-6.248;2023-11-19T11:36:03;99202.31;;;11.76;100.00
43707;BME280;61348;53.392;-6.248;2023-11-19T11:38:36;99181.69;;;11.74;100.00
43707;BME280;61348;53.392;-6.248;2023-11-19T11:41:21;99192.78;;;11.74;100.00
43707;BME280;61348;53.392;-6.248;2023-11-19T11:43:55;99194.75;;;11.73;100.00
43707;BME280;61348;53.392;-6.248;2023-11-19T11:49:06;99198.34;;;11.74;100.00
43707;BME280;61348;53.392;-6.248;2023-11-19T11:54:25;99211.03;;;11.75;100.00
43707;BME280;61348;53.392;-6.248;2023-11-19T11:57:13;99206.69;;;11.77;100.00
43707;BME280;61348;53.392;-6.248;2023-11-19T11:59:49;99211.03;;;11.75;100.00
43707;BME280;61348;53.392;-6.248;2023-11-19T12:02:19;99220.50;;;11.74;100.00
43707;BME280;61348;53.392;-6.248;2023-11-19T12:04:50;99214.97;;;11.74;100.00
43707;BME280;61348;53.392;-6.248;2023-11-19T12:07:22;99217.75;;;11.74;100.00
43707;BME280;61348;53.392;-6.248;2023-11-19T12:10:05;99216.97;;;11.77;100.00
43707;BME280;61348;53.392;-6.248;2023-11-19T12:12:35;99223.31;;;11.77;100.00
43707;BME280;61348;53.392;-6.248;2023-11-19T12:15:08;99236.38;;;11.77;100.00
43707;BME280;61348;53.392;-6.248;2023-11-19T12:17:41;99227.66;;;11.78;100.00
43707;BME280;61348;53.392;-6.248;2023-11-19T12:20:12;99238.38;;;11.80;100.00
43707;BME280;61348;53.392;-6.248;2023-11-19T12:22:40;99231.66;;;11.81;100.00
43707;BME280;61348;53.392;-6.248;2023-11-19T12:25:10;99238.75;;;11.78;100.00
43707;BME280;61348;53.392;-6.248;2023-11-19T12:27:51;99246.66;;;11.76;100.00
43707;BME280;61348;53.392;-6.248;2023-11-19T12:30:24;99248.25;;;11.74;100.00
43707;BME280;61348;53.392;-6.248;2023-11-19T12:32:53;99259.34;;;11.74;100.00
43707;BME280;61348;53.392;-6.248;2023-11-19T12:35:23;99252.22;;;11.73;100.00
43707;BME280;61348;53.392;-6.248;2023-11-19T12:37:54;99255.00;;;11.73;100.00
43707;BME280;61348;53.392;-6.248;2023-11-19T12:40:23;99264.88;;;11.74;100.00
43707;BME280;61348;53.392;-6.248;2023-11-19T12:42:53;99256.19;;;11.75;100.00
43707;BME280;61348;53.392;-6.248;2023-11-19T12:45:21;99274.78;;;11.75;100.00
43707;BME280;61348;53.392;-6.248;2023-11-19T12:48:08;99275.97;;;11.74;100.00
43707;BME280;61348;53.392;-6.248;2023-11-19T12:50:56;99281.50;;;11.74;100.00
43707;BME280;61348;53.392;-6.248;2023-11-19T12:53:26;99285.47;;;11.73;100.00
43707;BME280;61348;53.392;-6.248;2023-11-19T12:55:54;99292.19;;;11.72;100.00
43707;BME280;61348;53.392;-6.248;2023-11-19T12:58:35;99295.38;;;11.70;100.00
43707;BME280;61348;53.392;-6.248;2023-11-19T13:01:06;99300.84;;;11.67;100.00
43707;BME280;61348;53.392;-6.248;2023-11-19T13:03:36;99303.59;;;11.63;100.00
43707;BME280;61348;53.392;-6.248;2023-11-19T13:06:08;99300.41;;;11.57;100.00